Time;durP1;ratioP1;P1;durP2;ratioP2;P2;SDS_P1;SDS_P2;PMS_P1;PMS_P2;Temp;Humidity;BMP_temperature;BMP_pressure;BME280_temperature;BME280_humidity;BME280_pressure;Samples;Min_cycle;Max_cycle;Signal;HPM_P1;HPM_P2
2022/02/16 00:01:22;;;;;;;5.97;3.53;;;;;;;;;;5073838;28;20048;-58
2022/02/16 00:03:48;;;;;;;5.65;3.42;;;;;;;;;;5074301;28;20071;-58
2022/02/16 00:06:17;;;;;;;5.80;3.47;;;;;;;;;;5074747;28;20131;-59
2022/02/16 00:08:44;;;;;;;6.90;3.85;;;;;;;;;;5074488;28;20048;-58
2022/02/16 00:11:11;;;;;;;6.28;3.50;;;;;;;;;;5073946;28;20049;-59
2022/02/16 00:13:38;;;;;;;5.97;3.42;;;;;;;;;;5074360;28;20420;-59
2022/02/16 00:16:08;;;;;;;5.22;2.85;;;;;;;;;;5066721;28;20658;-58
2022/02/16 00:18:36;;;;;;;6.15;3.30;;;;;;;;;;5056154;28;20055;-59
2022/02/16 00:21:03;;;;;;;5.70;3.00;;;;;;;;;;5048970;28;20505;-59
2022/02/16 00:23:31;;;;;;;5.78;3.60;;;;;;;;;;5074047;22;20049;-80
2022/02/16 00:26:00;;;;;;;7.57;3.72;;;;;;;;;;5068377;28;20053;-78
2022/02/16 00:28:27;;;;;;;7.22;3.85;;;;;;;;;;5076495;28;20044;-79
2022/02/16 00:30:54;;;;;;;8.75;4.40;;;;;;;;;;5073314;28;20048;-79
2022/02/16 00:33:21;;;;;;;7.78;4.25;;;;;;;;;;5054934;28;20041;-79
2022/02/16 00:35:48;;;;;;;8.55;5.65;;;;;;;;;;5055311;28;20053;-79
2022/02/16 00:38:15;;;;;;;10.43;5.07;;;;;;;;;;5055824;28;20056;-79
2022/02/16 00:40:43;;;;;;;7.25;4.05;;;;;;;;;;5055918;28;20052;-79
2022/02/16 00:43:10;;;;;;;6.50;3.58;;;;;;;;;;5056499;28;20049;-79
2022/02/16 00:45:37;;;;;;;8.30;4.13;;;;;;;;;;5059204;28;20045;-78
2022/02/16 00:48:04;;;;;;;7.32;4.25;;;;;;;;;;5060034;28;20056;-78
2022/02/16 00:50:32;;;;;;;6.97;3.67;;;;;;;;;;5059084;28;20045;-78
2022/02/16 00:52:58;;;;;;;6.63;3.65;;;;;;;;;;5059316;28;20530;-78
2022/02/16 00:55:25;;;;;;;7.45;3.50;;;;;;;;;;5051301;28;20056;-78
2022/02/16 00:57:53;;;;;;;5.43;3.15;;;;;;;;;;5034288;28;20076;-77
2022/02/16 01:00:20;;;;;;;4.68;2.60;;;;;;;;;;5039275;28;20495;-78
2022/02/16 01:02:50;;;;;;;6.28;2.85;;;;;;;;;;5040646;28;20049;-80
2022/02/16 01:05:17;;;;;;;6.88;2.83;;;;;;;;;;5039191;28;20072;-78
2022/02/16 01:07:44;;;;;;;3.03;1.90;;;;;;;;;;5039059;28;20052;-78
2022/02/16 01:10:10;;;;;;;3.90;1.90;;;;;;;;;;5041028;28;20048;-78
2022/02/16 01:12:37;;;;;;;3.90;1.80;;;;;;;;;;5040651;28;20041;-78
2022/02/16 01:15:07;;;;;;;3.42;1.50;;;;;;;;;;5040403;28;20084;-78
2022/02/16 01:17:34;;;;;;;4.45;2.03;;;;;;;;;;5040302;28;20045;-78
2022/02/16 01:20:01;;;;;;;3.58;1.73;;;;;;;;;;5039948;28;20059;-78
2022/02/16 01:22:28;;;;;;;3.50;1.63;;;;;;;;;;5038956;28;20054;-78
2022/02/16 01:24:55;;;;;;;4.22;1.42;;;;;;;;;;5039802;28;20053;-78
2022/02/16 01:27:22;;;;;;;2.05;1.17;;;;;;;;;;5037118;28;20069;-78
2022/02/16 01:29:48;;;;;;;4.90;2.85;;;;;;;;;;5037779;28;20057;-78
2022/02/16 01:32:17;;;;;;;3.00;1.70;;;;;;;;;;5036505;28;20459;-78
2022/02/16 01:34:44;;;;;;;4.32;1.50;;;;;;;;;;5036592;28;20538;-78
2022/02/16 01:37:10;;;;;;;3.63;1.40;;;;;;;;;;5035953;28;20049;-78
2022/02/16 01:39:37;;;;;;;2.88;1.42;;;;;;;;;;5037072;28;20107;-78
2022/02/16 01:42:05;;;;;;;2.47;1.48;;;;;;;;;;5038858;28;20574;-78
2022/02/16 01:44:31;;;;;;;3.90;1.20;;;;;;;;;;5038743;28;20073;-78
2022/02/16 01:47:04;;;;;;;2.67;1.20;;;;;;;;;;5039247;28;20049;-78
2022/02/16 01:49:32;;;;;;;2.47;1.10;;;;;;;;;;5038904;28;20053;-78
2022/02/16 01:52:00;;;;;;;2.22;1.02;;;;;;;;;;5038429;28;20045;-78
2022/02/16 01:54:27;;;;;;;3.42;1.27;;;;;;;;;;5040380;28;20045;-78
2022/02/16 01:56:54;;;;;;;3.13;1.20;;;;;;;;;;5056105;28;20061;-78
2022/02/16 01:59:23;;;;;;;2.47;1.00;;;;;;;;;;5054836;28;20033;-77
2022/02/16 02:01:51;;;;;;;3.28;1.17;;;;;;;;;;5054277;28;20041;-78
2022/02/16 02:04:19;;;;;;;3.08;1.35;;;;;;;;;;5043501;28;20053;-78
2022/02/16 02:06:48;;;;;;;2.78;1.20;;;;;;;;;;5039453;28;20049;-79
2022/02/16 02:09:16;;;;;;;2.80;0.98;;;;;;;;;;5040098;28;20053;-78
2022/02/16 02:11:44;;;;;;;4.20;1.45;;;;;;;;;;5039587;28;20053;-78
2022/02/16 02:14:12;;;;;;;2.70;1.00;;;;;;;;;;5038650;28;20052;-78
2022/02/16 02:16:40;;;;;;;3.22;1.15;;;;;;;;;;5036647;28;20061;-77
2022/02/16 02:19:08;;;;;;;3.47;1.42;;;;;;;;;;5034779;28;20072;-78
2022/02/16 02:21:36;;;;;;;2.20;1.27;;;;;;;;;;5036061;28;20050;-78
2022/02/16 02:24:04;;;;;;;2.85;1.10;;;;;;;;;;5036392;28;20553;-78
2022/02/16 02:26:31;;;;;;;3.22;1.77;;;;;;;;;;5036174;28;20053;-78
2022/02/16 02:28:58;;;;;;;2.80;1.38;;;;;;;;;;5035516;28;20061;-78
2022/02/16 02:31:30;;;;;;;5.22;2.03;;;;;;;;;;5036144;28;20049;-78
2022/02/16 02:33:57;;;;;;;4.25;1.60;;;;;;;;;;5036808;28;20484;-78
2022/02/16 02:36:24;;;;;;;3.95;1.95;;;;;;;;;;5036808;28;20436;-78
2022/02/16 02:38:52;;;;;;;3.90;1.70;;;;;;;;;;5036009;28;20507;-78
2022/02/16 02:41:19;;;;;;;4.78;1.95;;;;;;;;;;5039243;28;20045;-79
2022/02/16 02:43:48;;;;;;;4.63;2.17;;;;;;;;;;5041895;28;20045;-79
2022/02/16 02:46:15;;;;;;;4.75;1.85;;;;;;;;;;5041935;28;20053;-79
2022/02/16 02:48:42;;;;;;;3.97;1.70;;;;;;;;;;5041416;28;20050;-78
2022/02/16 02:51:11;;;;;;;4.18;2.03;;;;;;;;;;5042071;28;20440;-79
2022/02/16 02:53:38;;;;;;;5.35;2.50;;;;;;;;;;5042097;28;20531;-79
2022/02/16 02:56:07;;;;;;;3.65;1.45;;;;;;;;;;5042307;28;20049;-79
2022/02/16 02:58:34;;;;;;;2.45;1.48;;;;;;;;;;5039821;28;20057;-79
2022/02/16 03:01:01;;;;;;;1.90;0.95;;;;;;;;;;5050849;28;20053;-79
2022/02/16 03:03:28;;;;;;;3.80;1.63;;;;;;;;;;5048816;28;20503;-79
2022/02/16 03:05:55;;;;;;;3.60;1.70;;;;;;;;;;5038246;28;20061;-80
2022/02/16 03:08:22;;;;;;;2.92;1.25;;;;;;;;;;5036150;28;20054;-79
2022/02/16 03:10:49;;;;;;;3.42;1.63;;;;;;;;;;5039399;28;20064;-80
2022/02/16 03:13:20;;;;;;;3.25;1.38;;;;;;;;;;5036507;28;20052;-80
2022/02/16 03:15:48;;;;;;;3.00;1.50;;;;;;;;;;5035398;28;20060;-79
2022/02/16 03:18:15;;;;;;;3.13;1.50;;;;;;;;;;5035127;28;20076;-79
2022/02/16 03:20:42;;;;;;;2.95;1.50;;;;;;;;;;5035203;28;20095;-79
2022/02/16 03:23:09;;;;;;;3.63;1.45;;;;;;;;;;5035052;28;20444;-79
2022/02/16 03:25:36;;;;;;;3.17;1.65;;;;;;;;;;5035101;28;20064;-79
2022/02/16 03:28:04;;;;;;;3.22;1.63;;;;;;;;;;5034279;28;20133;-79
2022/02/16 03:30:32;;;;;;;3.65;1.85;;;;;;;;;;5034404;28;20052;-79
2022/02/16 03:33:02;;;;;;;3.28;1.70;;;;;;;;;;5038185;28;20054;-79
2022/02/16 03:35:29;;;;;;;4.97;1.95;;;;;;;;;;5037446;28;20049;-80
2022/02/16 03:37:56;;;;;;;4.40;2.63;;;;;;;;;;5034656;28;20462;-80
2022/02/16 03:40:23;;;;;;;3.47;1.80;;;;;;;;;;5034460;28;20049;-79
2022/02/16 03:42:50;;;;;;;4.38;2.00;;;;;;;;;;5034319;28;20057;-80
2022/02/16 03:45:17;;;;;;;3.65;1.98;;;;;;;;;;5034533;28;20080;-79
2022/02/16 03:47:46;;;;;;;3.60;2.00;;;;;;;;;;5037071;28;20408;-80
2022/02/16 03:50:13;;;;;;;3.67;1.88;;;;;;;;;;5037845;28;20076;-79
2022/02/16 03:52:40;;;;;;;3.55;1.95;;;;;;;;;;5037148;28;20060;-79
2022/02/16 03:55:08;;;;;;;4.25;1.70;;;;;;;;;;5037652;28;20176;-78
2022/02/16 03:57:35;;;;;;;4.13;2.00;;;;;;;;;;5036995;28;20045;-79
2022/02/16 04:00:02;;;;;;;3.97;1.95;;;;;;;;;;5038282;28;20075;-79
2022/02/16 04:02:29;;;;;;;4.63;1.80;;;;;;;;;;5039399;28;20420;-80
2022/02/16 04:04:57;;;;;;;3.92;1.63;;;;;;;;;;5038468;28;20053;-80
2022/02/16 04:10:45;;;;;;;3.78;2.10;;;;;;;;;;5028336;28;20470;-79
2022/02/16 04:13:12;;;;;;;3.92;1.85;;;;;;;;;;5019761;28;20386;-80
2022/02/16 04:15:39;;;;;;;4.68;1.80;;;;;;;;;;5018989;28;20045;-79
2022/02/16 04:18:06;;;;;;;4.03;1.88;;;;;;;;;;5019906;28;20046;-80
2022/02/16 04:20:34;;;;;;;3.53;1.80;;;;;;;;;;5021251;28;20064;-79
2022/02/16 04:23:01;;;;;;;4.75;2.30;;;;;;;;;;5021749;28;20100;-79
2022/02/16 04:25:28;;;;;;;3.90;1.83;;;;;;;;;;5025103;28;20046;-79
2022/02/16 04:27:55;;;;;;;3.80;1.65;;;;;;;;;;5020695;28;20049;-80
2022/02/16 04:30:21;;;;;;;4.32;1.88;;;;;;;;;;5017384;28;20046;-80
2022/02/16 04:32:48;;;;;;;3.05;1.80;;;;;;;;;;5018177;28;20100;-80
2022/02/16 04:35:15;;;;;;;3.47;1.60;;;;;;;;;;5017798;28;20054;-80
2022/02/16 04:37:43;;;;;;;3.40;1.80;;;;;;;;;;5017674;28;20054;-80
2022/02/16 04:40:10;;;;;;;5.55;1.98;;;;;;;;;;5017811;28;20050;-80
2022/02/16 04:42:37;;;;;;;3.58;1.38;;;;;;;;;;5017560;28;20054;-79
2022/02/16 04:45:05;;;;;;;4.10;1.63;;;;;;;;;;5018110;28;20579;-80
2022/02/16 04:47:32;;;;;;;3.40;1.30;;;;;;;;;;5016901;28;20141;-80
2022/02/16 04:49:59;;;;;;;3.45;1.48;;;;;;;;;;5017632;28;20108;-80
2022/02/16 04:52:34;;;;;;;3.80;1.85;;;;;;;;;;5017464;28;20046;-79
2022/02/16 04:55:03;;;;;;;4.63;1.60;;;;;;;;;;5022519;28;20087;-80
2022/02/16 04:57:30;;;;;;;4.43;1.90;;;;;;;;;;5034845;28;20053;-80
2022/02/16 04:59:58;;;;;;;4.57;1.80;;;;;;;;;;5039393;28;20123;-80
2022/02/16 05:02:26;;;;;;;3.78;1.60;;;;;;;;;;5055615;28;20041;-78
2022/02/16 05:04:52;;;;;;;4.10;1.52;;;;;;;;;;5055947;28;20061;-80
2022/02/16 05:07:20;;;;;;;4.43;2.20;;;;;;;;;;5053676;28;20049;-80
2022/02/16 05:09:46;;;;;;;4.20;1.85;;;;;;;;;;5040271;28;20045;-80
2022/02/16 05:12:15;;;;;;;3.03;1.48;;;;;;;;;;5038109;28;20053;-79
2022/02/16 05:14:42;;;;;;;4.75;1.77;;;;;;;;;;5037468;28;20045;-79
2022/02/16 05:17:09;;;;;;;3.65;1.55;;;;;;;;;;5037673;28;20050;-80
2022/02/16 05:19:39;;;;;;;4.97;1.50;;;;;;;;;;5038073;28;20046;-80
2022/02/16 05:22:05;;;;;;;4.25;1.60;;;;;;;;;;5037231;28;20041;-80
2022/02/16 05:24:32;;;;;;;3.67;1.38;;;;;;;;;;5036704;28;20129;-80
2022/02/16 05:26:59;;;;;;;3.45;2.15;;;;;;;;;;5035789;28;20531;-80
2022/02/16 05:29:27;;;;;;;5.82;1.67;;;;;;;;;;5037025;28;20115;-79
2022/02/16 05:31:54;;;;;;;5.40;2.00;;;;;;;;;;5036449;28;20096;-79
2022/02/16 05:34:21;;;;;;;6.05;1.70;;;;;;;;;;5036762;28;20049;-80
2022/02/16 05:36:48;;;;;;;5.65;1.80;;;;;;;;;;5036763;28;20045;-79
2022/02/16 05:39:15;;;;;;;5.07;1.80;;;;;;;;;;5036920;28;20099;-80
2022/02/16 05:41:42;;;;;;;7.32;2.20;;;;;;;;;;5036284;28;20072;-80
2022/02/16 05:44:08;;;;;;;7.18;2.03;;;;;;;;;;5036208;28;20053;-79
2022/02/16 05:46:37;;;;;;;5.20;1.88;;;;;;;;;;5037373;28;20088;-79
2022/02/16 05:49:08;;;;;;;3.85;1.80;;;;;;;;;;5036220;28;20045;-79
2022/02/16 05:51:35;;;;;;;4.53;1.83;;;;;;;;;;5036419;28;20045;-79
2022/02/16 05:54:01;;;;;;;3.92;1.77;;;;;;;;;;5041062;28;20053;-80
2022/02/16 05:56:28;;;;;;;4.30;1.60;;;;;;;;;;5036825;28;20053;-80
2022/02/16 05:58:55;;;;;;;4.15;1.58;;;;;;;;;;5036935;28;20049;-80
2022/02/16 06:01:22;;;;;;;4.43;2.00;;;;;;;;;;5037150;28;20075;-78
2022/02/16 06:03:50;;;;;;;4.38;1.90;;;;;;;;;;5036965;28;20488;-79
2022/02/16 06:06:18;;;;;;;5.85;1.90;;;;;;;;;;5035669;28;20103;-79
2022/02/16 06:08:45;;;;;;;6.30;1.90;;;;;;;;;;5036436;28;20500;-80
2022/02/16 06:11:12;;;;;;;5.47;2.10;;;;;;;;;;5038805;28;20076;-79
2022/02/16 06:13:39;;;;;;;5.90;1.50;;;;;;;;;;5048453;28;20049;-79
2022/02/16 06:16:06;;;;;;;2.85;1.60;;;;;;;;;;5046412;28;20455;-80
2022/02/16 06:18:33;;;;;;;3.85;1.50;;;;;;;;;;5036698;28;20076;-79
2022/02/16 06:21:01;;;;;;;5.05;2.53;;;;;;;;;;5037948;28;20041;-80
2022/02/16 06:23:28;;;;;;;6.55;2.20;;;;;;;;;;5036265;28;20390;-80
2022/02/16 06:25:55;;;;;;;3.95;1.67;;;;;;;;;;5036362;28;20049;-80
2022/02/16 06:28:22;;;;;;;6.88;3.53;;;;;;;;;;5036740;28;20050;-80
2022/02/16 06:30:51;;;;;;;6.65;2.50;;;;;;;;;;5035815;28;20111;-80
2022/02/16 06:33:18;;;;;;;5.07;2.40;;;;;;;;;;5035291;28;20046;-81
2022/02/16 06:35:45;;;;;;;2.97;1.70;;;;;;;;;;5036725;28;20111;-79
2022/02/16 06:38:13;;;;;;;4.55;1.85;;;;;;;;;;5036198;28;20117;-80
2022/02/16 06:40:40;;;;;;;4.10;1.95;;;;;;;;;;5036119;28;20103;-80
2022/02/16 06:43:07;;;;;;;5.25;1.75;;;;;;;;;;5036045;28;20045;-80
2022/02/16 06:45:34;;;;;;;5.20;1.95;;;;;;;;;;5035689;28;20099;-80
2022/02/16 06:48:00;;;;;;;3.40;1.60;;;;;;;;;;5035389;28;20057;-80
2022/02/16 06:50:27;;;;;;;3.45;1.55;;;;;;;;;;5036251;28;20050;-80
2022/02/16 06:52:54;;;;;;;5.03;1.70;;;;;;;;;;5036446;28;20390;-80
2022/02/16 06:55:22;;;;;;;4.88;1.90;;;;;;;;;;5035885;28;20475;-80
2022/02/16 06:57:49;;;;;;;3.97;1.52;;;;;;;;;;5035142;28;20045;-79
2022/02/16 07:00:16;;;;;;;4.10;1.52;;;;;;;;;;5035211;28;20670;-80
2022/02/16 07:02:44;;;;;;;5.72;1.48;;;;;;;;;;5035643;28;20045;-80
2022/02/16 07:05:11;;;;;;;4.55;1.52;;;;;;;;;;5035423;28;20119;-80
2022/02/16 07:07:38;;;;;;;10.70;1.88;;;;;;;;;;5035318;28;20057;-80
2022/02/16 07:10:05;;;;;;;3.75;1.67;;;;;;;;;;5034918;28;20591;-80
2022/02/16 07:12:34;;;;;;;5.03;1.73;;;;;;;;;;5035422;28;20050;-80
2022/02/16 07:15:00;;;;;;;10.18;2.28;;;;;;;;;;5034823;28;20049;-79
2022/02/16 07:17:27;;;;;;;4.97;1.40;;;;;;;;;;5046894;22;20026;-78
2022/02/16 07:19:54;;;;;;;5.97;1.95;;;;;;;;;;5018916;28;20057;-77
2022/02/16 07:22:21;;;;;;;3.20;1.30;;;;;;;;;;5027821;28;20112;-77
2022/02/16 07:24:48;;;;;;;6.25;1.70;;;;;;;;;;5023086;28;20128;-77
2022/02/16 07:27:15;;;;;;;5.60;2.40;;;;;;;;;;5018058;28;20104;-77
2022/02/16 07:29:43;;;;;;;4.85;1.60;;;;;;;;;;5018733;28;20117;-77
2022/02/16 07:32:10;;;;;;;7.78;2.25;;;;;;;;;;5018419;28;20054;-77
2022/02/16 07:34:37;;;;;;;6.75;2.30;;;;;;;;;;5018052;28;20050;-77
2022/02/16 07:37:04;;;;;;;6.63;1.67;;;;;;;;;;5022530;28;20050;-77
2022/02/16 07:39:31;;;;;;;6.45;1.75;;;;;;;;;;5022824;28;20053;-77
2022/02/16 07:41:59;;;;;;;5.22;2.33;;;;;;;;;;5017588;28;20050;-78
2022/02/16 07:44:26;;;;;;;3.72;1.65;;;;;;;;;;5017687;28;20104;-78
2022/02/16 07:46:55;;;;;;;3.92;1.90;;;;;;;;;;5015985;28;20409;-78
2022/02/16 07:49:21;;;;;;;5.13;1.52;;;;;;;;;;5016266;28;20140;-77
2022/02/16 07:51:48;;;;;;;2.88;1.40;;;;;;;;;;5017432;28;20049;-78
2022/02/16 07:54:15;;;;;;;4.20;1.65;;;;;;;;;;5018816;28;20145;-78
2022/02/16 07:56:44;;;;;;;2.35;1.30;;;;;;;;;;5056423;28;20116;-76
2022/02/16 07:59:11;;;;;;;4.25;1.50;;;;;;;;;;5058606;28;20110;-78
2022/02/16 08:01:37;;;;;;;4.53;1.70;;;;;;;;;;5067800;28;20131;-78
2022/02/16 08:04:17;;;;;;;2.95;1.40;;;;;;;;;;5054801;28;20098;-78
2022/02/16 08:06:46;;;;;;;4.07;1.50;;;;;;;;;;5055112;28;20068;-77
2022/02/16 08:09:13;;;;;;;5.00;1.30;;;;;;;;;;5055588;28;20049;-77
2022/02/16 08:11:42;;;;;;;4.18;1.50;;;;;;;;;;5042483;28;20643;-78
2022/02/16 08:14:09;;;;;;;8.88;3.55;;;;;;;;;;5039454;28;20597;-77
2022/02/16 08:16:36;;;;;;;6.20;2.38;;;;;;;;;;5038891;28;20480;-77
2022/02/16 08:19:04;;;;;;;3.42;1.38;;;;;;;;;;5041280;28;20045;-76
2022/02/16 08:21:32;;;;;;;5.53;2.03;;;;;;;;;;5039668;28;20053;-77
2022/02/16 08:24:00;;;;;;;4.03;1.30;;;;;;;;;;5036006;28;20060;-77
2022/02/16 08:26:26;;;;;;;5.05;1.98;;;;;;;;;;5036472;28;20050;-77
2022/02/16 08:28:53;;;;;;;3.45;1.40;;;;;;;;;;5035661;28;20045;-76
2022/02/16 08:31:20;;;;;;;4.72;1.90;;;;;;;;;;5037160;28;20049;-77
2022/02/16 08:33:47;;;;;;;3.88;1.55;;;;;;;;;;5043481;28;20060;-77
2022/02/16 08:36:14;;;;;;;4.15;1.50;;;;;;;;;;5044775;28;20049;-78
2022/02/16 08:38:43;;;;;;;6.20;1.88;;;;;;;;;;5040422;28;20053;-77
2022/02/16 08:41:13;;;;;;;4.43;1.30;;;;;;;;;;5037708;28;20049;-78
2022/02/16 08:43:40;;;;;;;4.15;1.25;;;;;;;;;;5037190;28;20103;-78
2022/02/16 08:46:07;;;;;;;5.75;1.42;;;;;;;;;;5053055;28;20446;-78
2022/02/16 08:48:34;;;;;;;5.60;2.38;;;;;;;;;;5054923;28;20044;-78
2022/02/16 08:51:01;;;;;;;4.20;1.40;;;;;;;;;;5054026;28;20053;-78
2022/02/16 08:53:29;;;;;;;5.72;2.03;;;;;;;;;;5053556;28;20060;-78
2022/02/16 08:55:58;;;;;;;5.15;1.75;;;;;;;;;;5052642;28;20106;-78
2022/02/16 08:58:25;;;;;;;5.45;1.60;;;;;;;;;;5059512;28;20105;-77
2022/02/16 09:00:52;;;;;;;4.50;1.30;;;;;;;;;;5077241;28;20063;-78
2022/02/16 09:03:19;;;;;;;3.00;1.48;;;;;;;;;;5068656;28;20051;-78
2022/02/16 09:05:46;;;;;;;5.28;1.75;;;;;;;;;;5053539;28;20557;-76
2022/02/16 09:08:13;;;;;;;4.82;1.52;;;;;;;;;;5054170;28;20056;-78
2022/02/16 09:10:40;;;;;;;5.05;2.08;;;;;;;;;;5054313;28;20056;-77
2022/02/16 09:13:09;;;;;;;4.85;1.60;;;;;;;;;;5052785;28;20531;-78
2022/02/16 09:15:36;;;;;;;4.93;1.50;;;;;;;;;;5053453;28;20052;-78
2022/02/16 09:18:05;;;;;;;4.20;1.40;;;;;;;;;;5051799;28;20577;-77
2022/02/16 09:20:32;;;;;;;4.18;1.35;;;;;;;;;;5054331;28;20060;-77
2022/02/16 09:22:59;;;;;;;5.07;2.20;;;;;;;;;;5053070;28;20053;-78
2022/02/16 09:25:26;;;;;;;4.47;1.77;;;;;;;;;;5052500;28;20045;-78
2022/02/16 09:27:54;;;;;;;4.53;1.42;;;;;;;;;;5054422;28;20049;-77
2022/02/16 09:30:22;;;;;;;4.05;1.70;;;;;;;;;;5056297;28;20091;-79
2022/02/16 09:32:49;;;;;;;4.47;1.80;;;;;;;;;;5058083;28;20053;-78
2022/02/16 09:35:16;;;;;;;4.00;1.65;;;;;;;;;;5058102;28;20075;-77
2022/02/16 09:37:44;;;;;;;7.38;2.97;;;;;;;;;;5057584;28;20114;-77
2022/02/16 09:40:11;;;;;;;5.32;1.90;;;;;;;;;;5055059;28;20049;-76
2022/02/16 09:42:51;;;;;;;5.38;1.75;;;;;;;;;;5059345;28;20672;-77
2022/02/16 09:45:18;;;;;;;7.82;2.22;;;;;;;;;;5058619;28;20051;-75
2022/02/16 09:47:47;;;;;;;4.80;2.17;;;;;;;;;;5058390;28;20106;-78
2022/02/16 09:50:15;;;;;;;8.07;2.03;;;;;;;;;;5053722;28;20056;-78
2022/02/16 09:52:43;;;;;;;5.95;2.88;;;;;;;;;;5053643;28;20040;-77
2022/02/16 09:55:11;;;;;;;6.32;2.78;;;;;;;;;;5052409;28;20055;-77
2022/02/16 09:57:38;;;;;;;10.95;3.92;;;;;;;;;;5044021;28;20041;-76
2022/02/16 10:00:07;;;;;;;11.20;4.65;;;;;;;;;;5055433;28;20054;-77
2022/02/16 10:02:43;;;;;;;5.35;2.30;;;;;;;;;;5060033;28;20508;-78
2022/02/16 10:05:12;;;;;;;7.22;1.92;;;;;;;;;;5015899;28;20408;-78
2022/02/16 10:07:44;;;;;;;4.63;1.70;;;;;;;;;;5020725;28;20048;-79
2022/02/16 10:10:18;;;;;;;3.60;1.17;;;;;;;;;;5017653;28;20054;-77
2022/02/16 10:12:47;;;;;;;5.53;2.15;;;;;;;;;;5027702;28;20049;-77
2022/02/16 10:15:16;;;;;;;3.25;1.35;;;;;;;;;;5034106;28;20046;-77
2022/02/16 10:17:43;;;;;;;3.28;1.35;;;;;;;;;;5037208;28;20105;-77
2022/02/16 10:20:16;;;;;;;2.65;1.10;;;;;;;;;;5039425;28;20045;-79
2022/02/16 10:22:45;;;;;;;2.90;1.20;;;;;;;;;;5034054;28;20088;-77
2022/02/16 10:25:20;;;;;;;2.17;1.00;;;;;;;;;;5030785;28;20055;-78
2022/02/16 10:28:11;;;;;;;1.77;0.82;;;;;;;;;;5032201;28;20092;-78
2022/02/16 10:30:42;;;;;;;2.75;0.90;;;;;;;;;;5033959;28;20041;-78
2022/02/16 10:33:23;;;;;;;3.63;1.00;;;;;;;;;;5033721;28;20489;-78
2022/02/16 10:35:59;;;;;;;1.92;0.88;;;;;;;;;;5033587;28;20076;-76
2022/02/16 10:38:26;;;;;;;2.00;0.70;;;;;;;;;;5033219;28;20053;-79
2022/02/16 10:41:04;;;;;;;2.55;0.95;;;;;;;;;;5031527;28;20639;-78
2022/02/16 10:43:33;;;;;;;1.88;1.10;;;;;;;;;;5030525;28;20050;-79
2022/02/16 10:46:00;;;;;;;2.10;1.02;;;;;;;;;;5031510;28;20049;-78
2022/02/16 10:48:27;;;;;;;3.63;1.00;;;;;;;;;;5030519;28;20052;-77
2022/02/16 10:50:57;;;;;;;2.00;0.77;;;;;;;;;;5031353;28;20053;-76
2022/02/16 10:53:29;;;;;;;3.47;0.90;;;;;;;;;;5032489;28;20053;-76
2022/02/16 10:55:56;;;;;;;2.13;0.80;;;;;;;;;;5046536;28;20052;-77
2022/02/16 10:58:25;;;;;;;2.15;1.23;;;;;;;;;;5056965;28;20122;-77
2022/02/16 11:00:55;;;;;;;2.67;0.93;;;;;;;;;;5056464;28;20420;-77
2022/02/16 11:03:27;;;;;;;1.65;0.73;;;;;;;;;;5065004;28;20052;-77
2022/02/16 11:05:57;;;;;;;2.05;0.80;;;;;;;;;;5065494;28;20052;-77
2022/02/16 11:08:28;;;;;;;1.70;0.70;;;;;;;;;;5063161;28;20052;-78
2022/02/16 11:10:56;;;;;;;1.33;0.68;;;;;;;;;;5054085;28;20067;-77
2022/02/16 11:13:26;;;;;;;1.02;0.68;;;;;;;;;;5051037;28;20053;-80
2022/02/16 11:15:54;;;;;;;2.50;0.75;;;;;;;;;;5041775;28;20049;-81
2022/02/16 11:18:22;;;;;;;1.80;0.70;;;;;;;;;;5052730;28;20045;-77
2022/02/16 11:21:11;;;;;;;1.48;0.75;;;;;;;;;;5055122;28;20060;-78
2022/02/16 11:23:42;;;;;;;1.90;0.60;;;;;;;;;;5043303;28;20053;-77
2022/02/16 11:26:41;;;;;;;1.25;0.75;;;;;;;;;;5046384;28;20629;-80
2022/02/16 11:29:31;;;;;;;3.05;1.70;;;;;;;;;;4952599;28;20052;-81
2022/02/16 11:32:20;;;;;;;1.90;0.65;;;;;;;;;;5055736;28;20239;-81
2022/02/16 11:35:29;;;;;;;1.35;0.55;;;;;;;;;;5059787;28;20052;-77
2022/02/16 11:38:08;;;;;;;1.20;0.60;;;;;;;;;;5052721;28;20052;-78
2022/02/16 11:40:39;;;;;;;1.42;0.55;;;;;;;;;;5055650;28;20045;-77
2022/02/16 11:43:06;;;;;;;2.35;0.73;;;;;;;;;;5056825;28;20045;-80
2022/02/16 11:45:58;;;;;;;2.58;1.05;;;;;;;;;;5055619;28;20136;-78
2022/02/16 11:48:47;;;;;;;3.80;0.80;;;;;;;;;;5059026;28;20045;-78
2022/02/16 11:51:38;;;;;;;2.10;0.73;;;;;;;;;;5058081;28;20140;-77
2022/02/16 11:54:44;;;;;;;1.50;0.60;;;;;;;;;;5057626;28;20112;-78
2022/02/16 11:57:45;;;;;;;0.90;0.50;;;;;;;;;;5018669;28;20057;-79
2022/02/16 12:00:30;;;;;;;1.05;0.60;;;;;;;;;;5018598;28;20485;-79
2022/02/16 12:03:22;;;;;;;1.00;0.50;;;;;;;;;;5017970;28;20185;-78
2022/02/16 12:06:11;;;;;;;1.13;0.47;;;;;;;;;;5022231;28;20100;-78
2022/02/16 12:08:42;;;;;;;2.10;0.60;;;;;;;;;;5025566;28;20048;-77
2022/02/16 12:11:21;;;;;;;2.10;0.60;;;;;;;;;;5014674;28;20092;-78
2022/02/16 12:13:51;;;;;;;0.90;0.50;;;;;;;;;;5013920;28;20053;-79
2022/02/16 12:16:22;;;;;;;0.68;0.45;;;;;;;;;;5013489;28;20137;-76
2022/02/16 12:18:49;;;;;;;1.30;0.60;;;;;;;;;;5016336;28;20050;-76
2022/02/16 12:21:25;;;;;;;3.13;0.77;;;;;;;;;;5018024;28;20528;-77
2022/02/16 12:23:59;;;;;;;1.08;0.50;;;;;;;;;;5015860;28;20136;-78
2022/02/16 12:26:29;;;;;;;0.98;0.40;;;;;;;;;;5012972;28;20046;-78
2022/02/16 12:29:00;;;;;;;1.75;0.60;;;;;;;;;;5012959;28;20095;-78
2022/02/16 12:31:30;;;;;;;1.90;0.40;;;;;;;;;;5013103;28;20049;-78
2022/02/16 12:34:06;;;;;;;1.15;0.50;;;;;;;;;;5013815;28;20049;-78
2022/02/16 12:36:36;;;;;;;0.82;0.38;;;;;;;;;;5013124;28;20049;-78
2022/02/16 12:39:07;;;;;;;1.08;0.55;;;;;;;;;;5014654;28;20464;-76
2022/02/16 12:41:36;;;;;;;0.95;0.60;;;;;;;;;;5018644;28;20050;-79
2022/02/16 12:44:05;;;;;;;2.67;0.70;;;;;;;;;;5020486;28;20050;-77
2022/02/16 12:46:34;;;;;;;3.47;0.80;;;;;;;;;;5025828;28;20413;-77
2022/02/16 12:49:02;;;;;;;1.55;0.50;;;;;;;;;;5024809;28;20178;-77
2022/02/16 12:51:31;;;;;;;2.35;1.13;;;;;;;;;;5018982;28;20046;-76
2022/02/16 12:54:04;;;;;;;2.47;1.10;;;;;;;;;;5016876;28;20054;-77
2022/02/16 12:56:36;;;;;;;1.67;0.70;;;;;;;;;;5014663;28;20084;-76
2022/02/16 12:59:15;;;;;;;0.80;0.40;;;;;;;;;;5015170;28;20527;-77
2022/02/16 13:01:42;;;;;;;1.13;0.50;;;;;;;;;;5015005;28;20095;-77
2022/02/16 13:04:09;;;;;;;1.17;0.50;;;;;;;;;;5015458;28;20464;-79
2022/02/16 13:06:37;;;;;;;2.17;0.50;;;;;;;;;;5014976;28;20049;-79
2022/02/16 13:09:04;;;;;;;1.15;0.40;;;;;;;;;;5016115;28;20069;-78
2022/02/16 13:11:43;;;;;;;0.50;0.40;;;;;;;;;;5016838;28;20054;-78
2022/02/16 13:14:10;;;;;;;0.60;0.40;;;;;;;;;;5016360;28;20100;-78
2022/02/16 13:16:37;;;;;;;0.95;0.45;;;;;;;;;;5015192;28;20049;-78
2022/02/16 13:19:05;;;;;;;1.75;0.40;;;;;;;;;;5014074;28;20053;-78
2022/02/16 13:21:32;;;;;;;0.50;0.40;;;;;;;;;;5016450;28;20050;-77
2022/02/16 13:24:03;;;;;;;0.63;0.40;;;;;;;;;;5018231;28;20058;-77
2022/02/16 13:26:37;;;;;;;0.60;0.30;;;;;;;;;;5018295;28;20124;-78
2022/02/16 13:29:07;;;;;;;1.33;0.60;;;;;;;;;;5016316;28;20054;-75
2022/02/16 13:31:36;;;;;;;1.10;0.40;;;;;;;;;;5015491;28;20054;-78
2022/02/16 13:34:06;;;;;;;0.88;0.40;;;;;;;;;;5016442;28;20042;-78
2022/02/16 13:36:36;;;;;;;0.50;0.40;;;;;;;;;;5015131;28;20054;-77
2022/02/16 13:39:16;;;;;;;0.77;0.50;;;;;;;;;;5014849;28;20057;-78
2022/02/16 13:41:54;;;;;;;0.73;0.40;;;;;;;;;;5014875;28;20077;-77
2022/02/16 13:44:25;;;;;;;0.98;0.43;;;;;;;;;;5011792;28;20509;-78
2022/02/16 13:46:53;;;;;;;1.27;0.60;;;;;;;;;;5013492;28;20041;-77
2022/02/16 13:49:23;;;;;;;0.90;0.43;;;;;;;;;;5012814;28;20459;-79
2022/02/16 13:51:52;;;;;;;0.88;0.40;;;;;;;;;;5011873;28;20494;-80
2022/02/16 13:54:20;;;;;;;0.88;0.40;;;;;;;;;;5031060;28;20045;-77
2022/02/16 13:56:52;;;;;;;1.48;0.60;;;;;;;;;;5043530;28;20041;-79
2022/02/16 13:59:19;;;;;;;1.90;0.57;;;;;;;;;;5040787;28;20049;-78
2022/02/16 14:02:06;;;;;;;1.27;0.50;;;;;;;;;;5042807;28;20037;-77
2022/02/16 14:04:34;;;;;;;1.95;0.52;;;;;;;;;;5031921;28;20084;-78
2022/02/16 14:07:01;;;;;;;1.40;0.50;;;;;;;;;;5031563;28;20128;-77
2022/02/16 14:09:28;;;;;;;2.33;0.90;;;;;;;;;;5035058;28;20045;-79
2022/02/16 14:11:55;;;;;;;7.75;3.60;;;;;;;;;;5039610;28;20049;-79
2022/02/16 14:14:22;;;;;;;1.55;0.70;;;;;;;;;;5051169;28;20432;-76
2022/02/16 14:16:49;;;;;;;0.82;0.60;;;;;;;;;;5052610;28;20045;-77
2022/02/16 14:19:23;;;;;;;1.25;0.55;;;;;;;;;;5051207;28;20424;-78
2022/02/16 14:21:50;;;;;;;2.33;0.50;;;;;;;;;;5054884;28;20053;-78
2022/02/16 14:24:17;;;;;;;1.30;0.50;;;;;;;;;;5051352;28;20053;-78
2022/02/16 14:26:44;;;;;;;1.52;0.68;;;;;;;;;;5054155;28;20045;-76
2022/02/16 14:29:11;;;;;;;0.90;0.40;;;;;;;;;;5053354;28;20476;-79
2022/02/16 14:31:38;;;;;;;1.52;0.38;;;;;;;;;;5040635;28;20397;-78
2022/02/16 14:34:05;;;;;;;1.48;0.75;;;;;;;;;;5031285;28;20686;-78
2022/02/16 14:36:36;;;;;;;1.20;0.47;;;;;;;;;;5033836;28;20061;-78
2022/02/16 14:39:04;;;;;;;0.90;0.40;;;;;;;;;;5032633;28;20123;-79
2022/02/16 14:41:30;;;;;;;0.70;0.40;;;;;;;;;;5035480;28;20523;-79
2022/02/16 14:43:59;;;;;;;1.38;0.47;;;;;;;;;;5040906;28;20060;-78
2022/02/16 14:46:26;;;;;;;1.30;0.50;;;;;;;;;;5041565;28;20077;-79
2022/02/16 14:48:54;;;;;;;2.03;0.50;;;;;;;;;;5039970;28;20042;-78
2022/02/16 14:51:20;;;;;;;1.13;0.40;;;;;;;;;;5044106;28;20053;-77
2022/02/16 14:53:50;;;;;;;0.73;0.40;;;;;;;;;;5045217;28;20050;-78
2022/02/16 14:56:17;;;;;;;1.33;0.80;;;;;;;;;;5043136;28;20083;-77
2022/02/16 14:58:44;;;;;;;0.65;0.35;;;;;;;;;;5042565;28;20658;-77